createdAt,value
2022-09-28T00:01:17.835Z,98568.84
2022-09-28T00:03:47.229Z,98559.09
2022-09-28T00:06:18.606Z,98562.13
2022-09-28T00:08:46.530Z,98555.75
2022-09-28T00:11:15.875Z,98554.50
2022-09-28T00:13:46.058Z,98563.81
2022-09-28T00:16:19.726Z,98555.63
2022-09-28T00:18:47.715Z,98561.81
2022-09-28T00:21:18.734Z,98562.03
2022-09-28T00:24:05.207Z,98555.31
2022-09-28T00:26:34.443Z,98553.53
2022-09-28T00:29:03.030Z,98546.63
2022-09-28T00:31:33.219Z,98551.53
2022-09-28T00:34:02.064Z,98544.63
2022-09-28T00:36:32.162Z,98553.00
2022-09-28T00:39:03.895Z,98551.75
2022-09-28T00:41:31.847Z,98545.25
2022-09-28T00:44:24.260Z,98547.56
2022-09-28T00:47:20.054Z,98535.94
2022-09-28T00:49:54.335Z,98537.09
2022-09-28T00:52:35.210Z,98537.91
2022-09-28T00:55:06.534Z,98544.22
2022-09-28T00:57:35.936Z,98534.78
2022-09-28T01:00:04.827Z,98545.88
2022-09-28T01:02:32.757Z,98544.22
2022-09-28T01:05:04.145Z,98543.56
2022-09-28T01:07:33.448Z,98541.44
2022-09-28T01:10:01.520Z,98537.34
2022-09-28T01:12:30.095Z,98544.56
2022-09-28T01:14:58.924Z,98548.34
2022-09-28T01:17:38.456Z,98545.41
2022-09-28T01:20:42.561Z,98554.38
2022-09-28T01:23:25.465Z,98545.97
2022-09-28T01:26:34.026Z,98547.25
2022-09-28T01:29:31.570Z,98547.94
2022-09-28T01:32:16.830Z,98546.38
2022-09-28T01:34:56.259Z,98551.09
2022-09-28T01:37:32.370Z,98546.78
2022-09-28T01:40:05.052Z,98551.84
2022-09-28T01:42:38.021Z,98552.03
2022-09-28T01:45:13.554Z,98549.81
2022-09-28T01:47:43.425Z,98552.28
2022-09-28T01:50:15.954Z,98550.16
2022-09-28T01:52:56.809Z,98554.09
2022-09-28T01:55:34.459Z,98562.00
2022-09-28T01:58:22.080Z,98559.72
2022-09-28T02:00:59.946Z,98561.81
2022-09-28T02:03:37.598Z,98556.56
2022-09-28T02:06:16.299Z,98558.16
2022-09-28T02:08:57.830Z,98557.69
2022-09-28T02:11:37.381Z,98562.09
2022-09-28T02:14:10.310Z,98553.22
2022-09-28T02:16:46.064Z,98551.19
2022-09-28T02:19:21.339Z,98553.59
2022-09-28T02:21:58.632Z,98557.81
2022-09-28T02:24:40.562Z,98555.28
2022-09-28T02:27:18.965Z,98553.59
2022-09-28T02:29:47.148Z,98552.31
2022-09-28T02:32:15.908Z,98564.13
2022-09-28T02:34:44.559Z,98557.94
2022-09-28T02:37:13.263Z,98562.97
2022-09-28T02:39:41.050Z,98568.66
2022-09-28T02:42:23.859Z,98562.97
2022-09-28T02:45:25.126Z,98563.13
2022-09-28T02:48:49.197Z,98569.13
2022-09-28T02:51:46.169Z,98569.38
2022-09-28T02:54:24.938Z,98559.22
2022-09-28T02:57:07.505Z,98560.25
2022-09-28T03:00:10.560Z,98566.94
2022-09-28T03:02:42.618Z,98564.88
2022-09-28T03:05:22.076Z,98560.59
2022-09-28T03:08:06.822Z,98553.09
2022-09-28T03:10:41.818Z,98562.84
2022-09-28T03:13:11.238Z,98571.53
2022-09-28T03:15:40.485Z,98572.38
2022-09-28T03:18:08.224Z,98572.16
2022-09-28T03:20:36.544Z,98570.88
2022-09-28T03:25:53.093Z,98575.53
2022-09-28T03:28:21.695Z,98572.84
2022-09-28T03:30:50.677Z,98574.69
2022-09-28T03:33:19.812Z,98575.72
2022-09-28T03:35:52.203Z,98577.78
2022-09-28T03:38:20.671Z,98580.88
2022-09-28T03:40:59.128Z,98577.31
2022-09-28T03:43:30.799Z,98576.13
2022-09-28T03:46:01.879Z,98576.41
2022-09-28T03:48:35.423Z,98566.78
2022-09-28T03:51:05.789Z,98572.84
2022-09-28T03:53:35.467Z,98563.22
2022-09-28T03:56:07.024Z,98560.41
2022-09-28T03:58:35.706Z,98561.63
2022-09-28T04:01:17.541Z,98555.28
2022-09-28T04:03:48.168Z,98565.94
2022-09-28T04:06:16.254Z,98566.50
2022-09-28T04:08:43.970Z,98562.56
2022-09-28T04:11:12.512Z,98563.41
2022-09-28T04:13:41.141Z,98563.22
2022-09-28T04:16:12.083Z,98563.88
2022-09-28T04:18:43.087Z,98559.09
2022-09-28T04:21:45.905Z,98562.84
2022-09-28T04:24:15.739Z,98562.63
2022-09-28T04:26:43.532Z,98567.69
2022-09-28T04:29:16.756Z,98554.97
2022-09-28T04:31:56.214Z,98559.59
2022-09-28T04:34:37.119Z,98564.84
2022-09-28T04:37:06.918Z,98558.53
2022-09-28T04:39:34.723Z,98555.31
2022-09-28T04:42:02.796Z,98559.41
2022-09-28T04:44:30.732Z,98548.00
2022-09-28T04:47:06.368Z,98549.69
2022-09-28T04:49:37.070Z,98546.53
2022-09-28T04:52:28.293Z,98546.75
2022-09-28T04:54:56.494Z,98557.94
2022-09-28T04:57:25.648Z,98553.41
2022-09-28T04:59:53.362Z,98554.38
2022-09-28T05:02:21.260Z,98554.38
2022-09-28T05:05:14.747Z,98560.91
2022-09-28T05:08:11.874Z,98556.28
2022-09-28T05:10:41.816Z,98550.91
2022-09-28T05:13:11.400Z,98551.03
2022-09-28T05:15:40.725Z,98550.22
2022-09-28T05:18:09.590Z,98546.88
2022-09-28T05:20:46.168Z,98560.16
2022-09-28T05:23:15.500Z,98572.66
2022-09-28T05:25:45.927Z,98567.22
2022-09-28T05:28:29.109Z,98570.16
2022-09-28T05:31:29.080Z,98573.13
2022-09-28T05:34:13.595Z,98572.47
2022-09-28T05:36:42.818Z,98574.31
2022-09-28T05:39:10.589Z,98583.69
2022-09-28T05:41:38.942Z,98575.44
2022-09-28T05:44:06.750Z,98586.94
2022-09-28T05:46:35.884Z,98589.66
2022-09-28T05:49:03.855Z,98604.97
2022-09-28T05:51:32.187Z,98604.34
2022-09-28T05:54:04.827Z,98609.44
2022-09-28T05:56:33.913Z,98604.88
2022-09-28T05:59:06.472Z,98610.41
2022-09-28T06:01:34.609Z,98616.50
2022-09-28T06:04:03.489Z,98622.19
2022-09-28T06:06:32.398Z,98610.88
2022-09-28T06:09:00.099Z,98615.44
2022-09-28T06:11:32.606Z,98621.81
2022-09-28T06:14:05.307Z,98619.00
2022-09-28T06:16:35.110Z,98623.41
2022-09-28T06:19:02.917Z,98621.25
2022-09-28T06:21:44.833Z,98621.47
2022-09-28T06:24:12.891Z,98621.09
2022-09-28T06:26:41.012Z,98616.09
2022-09-28T06:29:09.332Z,98624.59
2022-09-28T06:31:37.251Z,98625.81
2022-09-28T06:34:05.011Z,98629.44
2022-09-28T06:36:33.865Z,98630.44
2022-09-28T06:39:01.607Z,98635.97
2022-09-28T06:41:30.245Z,98625.78
2022-09-28T06:44:03.703Z,98637.03
2022-09-28T06:47:09.674Z,98638.34
2022-09-28T06:50:16.096Z,98629.56
2022-09-28T06:52:55.322Z,98636.09
2022-09-28T06:55:50.232Z,98644.13
2022-09-28T06:58:20.798Z,98633.84
2022-09-28T07:00:52.513Z,98652.88
2022-09-28T07:03:24.865Z,98652.31
2022-09-28T07:05:58.642Z,98644.38
2022-09-28T07:09:10.040Z,98649.66
2022-09-28T07:12:00.471Z,98642.56
2022-09-28T07:14:47.868Z,98643.63
2022-09-28T07:17:17.211Z,98638.63
2022-09-28T07:19:45.022Z,98649.31
2022-09-28T07:22:18.477Z,98638.38
2022-09-28T07:24:48.899Z,98655.22
2022-09-28T07:27:39.722Z,98645.16
2022-09-28T07:30:35.375Z,98647.84
2022-09-28T07:33:17.228Z,98652.13
2022-09-28T07:35:55.635Z,98652.53
2022-09-28T07:38:28.067Z,98655.41
2022-09-28T07:41:14.282Z,98640.69
2022-09-28T07:43:49.808Z,98642.66
2022-09-28T07:46:18.043Z,98640.97
2022-09-28T07:48:55.940Z,98646.09
2022-09-28T07:51:35.844Z,98651.22
2022-09-28T07:54:18.931Z,98662.84
2022-09-28T07:57:12.937Z,98662.16
2022-09-28T08:00:15.046Z,98659.16
2022-09-28T08:02:45.078Z,98668.44
2022-09-28T08:05:17.557Z,98671.75
2022-09-28T08:07:45.526Z,98679.53
2022-09-28T08:10:14.261Z,98689.44
2022-09-28T08:13:05.481Z,98686.66
2022-09-28T08:15:42.735Z,98687.03
2022-09-28T08:18:21.787Z,98685.69
2022-09-28T08:21:11.432Z,98686.91
2022-09-28T08:23:40.067Z,98688.50
2022-09-28T08:26:12.075Z,98690.94
2022-09-28T08:28:43.634Z,98687.06
2022-09-28T08:31:31.130Z,98693.63
2022-09-28T08:34:13.772Z,98692.88
2022-09-28T08:37:02.134Z,98702.28
2022-09-28T08:39:48.111Z,98702.63
2022-09-28T08:42:41.379Z,98697.53
2022-09-28T08:45:38.158Z,98700.94
2022-09-28T08:49:13.515Z,98693.78
2022-09-28T08:52:14.812Z,98699.88
2022-09-28T08:55:30.272Z,98697.16
2022-09-28T08:58:04.884Z,98695.09
2022-09-28T09:00:49.395Z,98697.13
2022-09-28T09:03:34.270Z,98698.81
2022-09-28T09:06:36.158Z,98696.22
2022-09-28T09:09:59.132Z,98704.31
2022-09-28T09:12:36.925Z,98703.03
2022-09-28T09:15:14.578Z,98707.69
2022-09-28T09:18:22.555Z,98704.16
2022-09-28T09:21:16.347Z,98705.34
2022-09-28T09:24:04.637Z,98712.31
2022-09-28T09:26:41.029Z,98707.88
2022-09-28T09:29:31.670Z,98702.50
2022-09-28T09:32:09.229Z,98709.03
2022-09-28T09:34:46.156Z,98711.97
2022-09-28T09:37:58.662Z,98715.47
2022-09-28T09:41:16.123Z,98716.34
2022-09-28T09:44:33.619Z,98717.16
2022-09-28T09:47:43.090Z,98712.72
2022-09-28T09:50:49.664Z,98719.66
2022-09-28T09:53:20.991Z,98705.31
2022-09-28T09:55:57.427Z,98718.59
2022-09-28T09:58:42.579Z,98711.38
2022-09-28T10:01:40.504Z,98719.31
2022-09-28T10:04:33.938Z,98718.41
2022-09-28T10:07:09.849Z,98728.66
2022-09-28T10:09:47.829Z,98729.03
2022-09-28T10:12:27.140Z,98730.19
2022-09-28T10:14:56.091Z,98729.44
2022-09-28T10:17:27.726Z,98732.22
2022-09-28T10:20:16.160Z,98733.63
2022-09-28T10:23:04.940Z,98735.84
2022-09-28T10:25:37.512Z,98734.59
2022-09-28T10:28:07.688Z,98740.16
2022-09-28T10:30:42.077Z,98731.69
2022-09-28T10:33:32.044Z,98726.47
2022-09-28T10:36:02.012Z,98731.09
2022-09-28T10:38:34.240Z,98743.31
2022-09-28T10:41:12.206Z,98724.25
2022-09-28T10:44:06.627Z,98731.22
2022-09-28T10:47:00.979Z,98733.56
2022-09-28T10:49:49.761Z,98716.56
2022-09-28T10:52:41.708Z,98715.47
2022-09-28T10:55:33.588Z,98725.53
2022-09-28T10:58:17.460Z,98719.78
2022-09-28T11:00:45.744Z,98723.00
2022-09-28T11:03:28.038Z,98725.75
2022-09-28T11:06:08.017Z,98727.69
2022-09-28T11:08:42.181Z,98724.09
2022-09-28T11:11:20.093Z,98722.13
2022-09-28T11:14:03.764Z,98724.47
2022-09-28T11:16:37.521Z,98720.31
2022-09-28T11:19:22.137Z,98726.16
2022-09-28T11:21:51.485Z,98715.44
2022-09-28T11:24:26.125Z,98718.81
2022-09-28T11:27:00.240Z,98721.50
2022-09-28T11:29:44.301Z,98720.59
2022-09-28T11:32:18.651Z,98727.63
2022-09-28T11:35:07.396Z,98721.94
2022-09-28T11:37:54.479Z,98721.22
2022-09-28T11:41:11.144Z,98719.19
2022-09-28T11:43:45.356Z,98715.13
2022-09-28T11:46:35.125Z,98714.06
2022-09-28T11:49:31.571Z,98720.63
2022-09-28T11:52:08.605Z,98719.09
2022-09-28T11:54:54.785Z,98706.00
2022-09-28T11:57:28.652Z,98711.59
2022-09-28T12:00:10.699Z,98711.91
2022-09-28T12:03:09.483Z,98722.34
2022-09-28T12:06:06.609Z,98717.72
2022-09-28T12:08:41.668Z,98723.28
2022-09-28T12:11:36.176Z,98730.47
2022-09-28T12:14:40.854Z,98731.81
2022-09-28T12:17:28.755Z,98734.94
2022-09-28T12:20:14.199Z,98734.03
2022-09-28T12:22:48.551Z,98733.81
2022-09-28T12:25:21.229Z,98730.75
2022-09-28T12:28:03.321Z,98730.09
2022-09-28T12:30:37.426Z,98735.00
2022-09-28T12:33:13.529Z,98732.94
2022-09-28T12:35:56.818Z,98732.53
2022-09-28T12:39:18.095Z,98744.81
2022-09-28T12:41:58.804Z,98744.81
2022-09-28T12:44:32.751Z,98754.13
2022-09-28T12:47:09.683Z,98751.09
2022-09-28T12:53:27.396Z,98756.78
2022-09-28T12:56:11.695Z,98765.41
2022-09-28T12:59:03.215Z,98769.53
2022-09-28T13:01:52.797Z,98762.94
2022-09-28T13:05:08.005Z,98759.34
2022-09-28T13:07:59.523Z,98752.31
2022-09-28T13:10:50.789Z,98753.69
2022-09-28T13:13:48.258Z,98743.69
2022-09-28T13:16:35.438Z,98735.31
2022-09-28T13:19:16.920Z,98724.06
2022-09-28T13:22:00.758Z,98723.47
2022-09-28T13:24:35.184Z,98719.88
2022-09-28T13:27:10.474Z,98726.94
2022-09-28T13:29:40.834Z,98724.28
2022-09-28T13:32:11.692Z,98723.13
2022-09-28T13:34:40.544Z,98732.19
2022-09-28T13:37:24.110Z,98728.47
2022-09-28T13:39:59.482Z,98721.66
2022-09-28T13:42:39.250Z,98731.47
2022-09-28T13:45:22.465Z,98722.16
2022-09-28T13:48:11.892Z,98728.38
2022-09-28T13:51:14.840Z,98714.47
2022-09-28T13:54:24.097Z,98711.97
2022-09-28T13:57:13.609Z,98714.38
2022-09-28T13:59:58.181Z,98714.72
2022-09-28T14:03:13.289Z,98719.03
2022-09-28T14:06:00.794Z,98709.47
2022-09-28T14:08:38.477Z,98712.56
2022-09-28T14:11:35.832Z,98716.50
2022-09-28T14:14:13.878Z,98725.63
2022-09-28T14:16:44.805Z,98722.78
2022-09-28T14:19:33.988Z,98726.63
2022-09-28T14:22:15.885Z,98718.19
2022-09-28T14:25:02.578Z,98717.31
2022-09-28T14:27:58.383Z,98722.09
2022-09-28T14:30:35.462Z,98719.97
2022-09-28T14:33:22.498Z,98715.19
2022-09-28T14:35:56.324Z,98724.25
2022-09-28T14:38:54.725Z,98728.47
2022-09-28T14:41:41.964Z,98727.47
2022-09-28T14:44:16.555Z,98719.22
2022-09-28T14:46:46.355Z,98720.75
2022-09-28T14:49:20.255Z,98705.13
2022-09-28T14:51:48.074Z,98713.50
2022-09-28T14:54:23.738Z,98709.22
2022-09-28T14:56:57.075Z,98716.88
2022-09-28T14:59:39.023Z,98725.69
2022-09-28T15:02:20.563Z,98724.41
2022-09-28T15:04:52.021Z,98724.94
2022-09-28T15:07:43.468Z,98722.66
2022-09-28T15:10:28.264Z,98717.56
2022-09-28T15:12:57.236Z,98717.31
2022-09-28T15:15:50.517Z,98723.25
2022-09-28T15:18:36.572Z,98715.78
2022-09-28T15:21:04.585Z,98729.44
2022-09-28T15:23:44.161Z,98720.38
2022-09-28T15:26:24.358Z,98722.94
2022-09-28T15:28:52.250Z,98719.47
2022-09-28T15:31:23.181Z,98735.59
2022-09-28T15:34:09.975Z,98743.47
2022-09-28T15:36:46.457Z,98729.59
2022-09-28T15:39:32.070Z,98732.38
2022-09-28T15:42:02.257Z,98727.38
2022-09-28T15:44:36.587Z,98729.38
2022-09-28T15:47:10.954Z,98727.06
2022-09-28T15:49:43.421Z,98727.06
2022-09-28T15:52:41.847Z,98722.03
2022-09-28T15:55:29.388Z,98729.28
2022-09-28T15:58:18.813Z,98729.69
2022-09-28T16:00:48.689Z,98728.78
2022-09-28T16:03:28.290Z,98725.94
2022-09-28T16:05:58.786Z,98723.63
2022-09-28T16:08:46.606Z,98718.16
2022-09-28T16:11:14.305Z,98721.91
2022-09-28T16:14:05.974Z,98712.56
2022-09-28T16:16:46.636Z,98713.47
2022-09-28T16:19:24.174Z,98714.09
2022-09-28T16:21:53.571Z,98717.41
2022-09-28T16:24:29.674Z,98719.06
2022-09-28T16:27:03.722Z,98722.00
2022-09-28T16:29:40.322Z,98715.72
2022-09-28T16:32:26.597Z,98711.69
2022-09-28T16:35:18.691Z,98711.94
2022-09-28T16:37:48.794Z,98710.56
2022-09-28T16:40:16.861Z,98713.94
2022-09-28T16:42:49.063Z,98704.59
2022-09-28T16:45:20.463Z,98701.84
2022-09-28T16:47:52.909Z,98691.34
2022-09-28T16:50:22.345Z,98687.19
2022-09-28T16:53:19.586Z,98687.38
2022-09-28T16:55:49.762Z,98692.06
2022-09-28T16:58:18.636Z,98694.31
2022-09-28T17:00:46.311Z,98692.81
2022-09-28T17:03:20.981Z,98693.22
2022-09-28T17:05:49.444Z,98686.69
2022-09-28T17:08:19.449Z,98696.59
2022-09-28T17:11:15.824Z,98699.59
2022-09-28T17:13:43.379Z,98699.41
2022-09-28T17:16:14.844Z,98696.78
2022-09-28T17:18:42.855Z,98687.69
2022-09-28T17:21:20.631Z,98690.84
2022-09-28T17:23:50.050Z,98694.69
2022-09-28T17:26:24.279Z,98689.34
2022-09-28T17:28:53.071Z,98693.88
2022-09-28T17:31:21.045Z,98689.69
2022-09-28T17:33:48.795Z,98689.19
2022-09-28T17:36:18.878Z,98694.53
2022-09-28T17:38:47.826Z,98681.81
2022-09-28T17:41:20.955Z,98680.16
2022-09-28T17:43:50.103Z,98676.84
2022-09-28T17:46:25.979Z,98684.53
2022-09-28T17:48:54.750Z,98660.31
2022-09-28T17:51:23.773Z,98663.13
2022-09-28T17:53:52.657Z,98660.31
2022-09-28T17:56:20.537Z,98659.47
2022-09-28T17:58:48.410Z,98668.75
2022-09-28T18:01:16.693Z,98673.72
2022-09-28T18:03:44.734Z,98678.41
2022-09-28T18:06:19.310Z,98680.09
2022-09-28T18:08:47.363Z,98678.59
2022-09-28T18:11:17.332Z,98686.53
2022-09-28T18:13:46.138Z,98695.81
2022-09-28T18:16:14.779Z,98692.44
2022-09-28T18:18:42.648Z,98701.03
2022-09-28T18:21:10.391Z,98704.50
2022-09-28T18:23:39.680Z,98708.69
2022-09-28T18:26:12.309Z,98717.13
2022-09-28T18:28:40.716Z,98724.06
2022-09-28T18:31:10.039Z,98731.75
2022-09-28T18:33:39.332Z,98736.25
2022-09-28T18:36:07.989Z,98754.22
2022-09-28T18:38:36.864Z,98757.75
2022-09-28T18:41:08.641Z,98764.69
2022-09-28T18:43:37.121Z,98751.03
2022-09-28T18:46:11.851Z,98772.22
2022-09-28T18:48:43.955Z,98777.22
2022-09-28T18:51:12.754Z,98779.56
2022-09-28T18:53:41.220Z,98779.41
2022-09-28T18:56:11.637Z,98784.09
2022-09-28T18:58:41.402Z,98781.84
2022-09-28T19:01:30.842Z,98783.94
2022-09-28T19:04:04.756Z,98792.00
2022-09-28T19:06:34.538Z,98794.78
2022-09-28T19:09:02.632Z,98801.25
2022-09-28T19:11:30.351Z,98796.84
2022-09-28T19:13:58.229Z,98806.66
2022-09-28T19:16:29.019Z,98815.25
2022-09-28T19:19:02.842Z,98810.13
2022-09-28T19:21:31.364Z,98815.34
2022-09-28T19:24:03.577Z,98818.72
2022-09-28T19:26:33.001Z,98817.34
2022-09-28T19:29:02.823Z,98822.00
2022-09-28T19:31:31.115Z,98814.34
2022-09-28T19:33:59.187Z,98814.59
2022-09-28T19:36:28.680Z,98800.59
2022-09-28T19:38:58.613Z,98794.78
2022-09-28T19:41:43.449Z,98799.63
2022-09-28T19:44:19.474Z,98791.03
2022-09-28T19:46:47.433Z,98797.47
2022-09-28T19:49:19.711Z,98789.88
2022-09-28T19:54:38.199Z,98783.16
2022-09-28T19:57:08.657Z,98774.56
2022-09-28T19:59:37.574Z,98776.06
2022-09-28T20:02:07.469Z,98769.50
2022-09-28T20:04:35.364Z,98760.81
2022-09-28T20:07:04.323Z,98750.72
2022-09-28T20:09:33.344Z,98750.44
2022-09-28T20:12:01.584Z,98744.75
2022-09-28T20:14:33.090Z,98729.31
2022-09-28T20:17:04.438Z,98728.97
2022-09-28T20:19:32.723Z,98727.47
2022-09-28T20:22:02.874Z,98728.31
2022-09-28T20:24:32.030Z,98722.41
2022-09-28T20:27:01.330Z,98722.34
2022-09-28T20:29:31.627Z,98725.22
2022-09-28T20:32:00.438Z,98733.03
2022-09-28T20:34:28.269Z,98732.75
2022-09-28T20:36:56.170Z,98735.28
2022-09-28T20:39:24.104Z,98737.31
2022-09-28T20:41:51.968Z,98744.06
2022-09-28T20:44:19.967Z,98743.91
2022-09-28T20:46:51.287Z,98740.88
2022-09-28T20:49:19.225Z,98739.34
2022-09-28T20:51:47.076Z,98737.91
2022-09-28T20:54:14.986Z,98742.47
2022-09-28T20:56:42.862Z,98741.97
2022-09-28T20:59:12.527Z,98742.22
2022-09-28T21:01:40.889Z,98741.19
2022-09-28T21:04:10.520Z,98737.31
2022-09-28T21:06:40.977Z,98743.78
2022-09-28T21:09:10.382Z,98748.66
2022-09-28T21:11:39.493Z,98737.38
2022-09-28T21:14:10.334Z,98741.06
2022-09-28T21:16:38.881Z,98740.78
2022-09-28T21:19:06.660Z,98745.56
2022-09-28T21:21:34.638Z,98743.97
2022-09-28T21:24:03.636Z,98752.81
2022-09-28T21:26:32.110Z,98754.81
2022-09-28T21:29:02.726Z,98754.22
2022-09-28T21:31:45.619Z,98751.63
2022-09-28T21:34:22.263Z,98749.94
2022-09-28T21:36:51.345Z,98747.41
2022-09-28T21:39:20.222Z,98745.03
2022-09-28T21:41:48.294Z,98741.66
2022-09-28T21:44:16.252Z,98743.81
2022-09-28T21:46:44.118Z,98756.84
2022-09-28T21:49:12.670Z,98756.94
2022-09-28T21:51:40.652Z,98757.91
2022-09-28T21:54:08.796Z,98767.13
2022-09-28T21:56:36.516Z,98767.56
2022-09-28T21:59:04.678Z,98771.22
2022-09-28T22:01:32.535Z,98757.75
2022-09-28T22:04:00.376Z,98770.00
2022-09-28T22:06:28.456Z,98759.72
2022-09-28T22:08:57.337Z,98765.09
2022-09-28T22:11:27.068Z,98773.41
2022-09-28T22:13:58.046Z,98768.03
2022-09-28T22:16:30.550Z,98766.19
2022-09-28T22:18:59.214Z,98766.19
2022-09-28T22:21:29.767Z,98774.00
2022-09-28T22:24:02.483Z,98781.59
2022-09-28T22:26:32.350Z,98789.06
2022-09-28T22:29:02.902Z,98785.63
2022-09-28T22:31:33.547Z,98786.91
2022-09-28T22:34:02.407Z,98793.41
2022-09-28T22:36:30.508Z,98787.78
2022-09-28T22:38:59.755Z,98781.75
2022-09-28T22:41:28.402Z,98778.59
2022-09-28T22:43:56.365Z,98777.97
2022-09-28T22:46:26.991Z,98786.72
2022-09-28T22:48:59.101Z,98796.13
2022-09-28T22:51:30.094Z,98802.72
2022-09-28T22:53:58.490Z,98790.56
2022-09-28T22:56:26.432Z,98791.75
2022-09-28T22:58:54.677Z,98799.09
2022-09-28T23:01:26.081Z,98791.13
2022-09-28T23:03:55.166Z,98789.44
2022-09-28T23:06:26.204Z,98796.25
2022-09-28T23:08:54.106Z,98789.97
2022-09-28T23:11:21.983Z,98789.84
2022-09-28T23:13:54.857Z,98792.69
2022-09-28T23:16:25.507Z,98796.69
2022-09-28T23:18:55.213Z,98796.81
2022-09-28T23:21:25.418Z,98808.03
2022-09-28T23:23:58.897Z,98815.53
2022-09-28T23:26:29.817Z,98805.34
2022-09-28T23:28:58.308Z,98803.31
2022-09-28T23:31:28.844Z,98807.28
2022-09-28T23:34:05.509Z,98802.91
2022-09-28T23:36:34.197Z,98805.84
2022-09-28T23:39:02.267Z,98809.47
2022-09-28T23:41:30.432Z,98806.44
2022-09-28T23:43:58.315Z,98802.91
2022-09-28T23:46:26.316Z,98811.56
2022-09-28T23:48:54.148Z,98813.34
2022-09-28T23:51:22.221Z,98818.41
2022-09-28T23:53:50.595Z,98821.44
2022-09-28T23:56:18.309Z,98826.75
2022-09-28T23:58:45.983Z,98830.81
